PWSweather.com
Personal Weather Stations
Station Observations
KMICHEBO10
Cordwood Point, Lake Huron, Cheboygan, MI 49721

Cordwood Point, Lake HuronCheboygan, MI 49721

Lat: 45.663372, Lon: -84.3327789

Elevation: 584

Station Type: Davis Vantage Pro2 Wireless

https://www.lakehuronweather.org

High Low Average
Temperature 28.5°F-1.9°C 15.1°F-9.4°C 22.4°F-5.3°C
Dew Point 27.3°F-2.6°C 11.6°F-11.3°C 20.2°F-6.6°C
Winds 8.1 mph 13.0 kmh 1.2 mph 1.9 kmh 3.0 mph SW4.8 kmh SW
Wind Gusts 13.8 mph22.2 kmh 2.3 mph3.7 kmh 6.0 mph9.7 kmh
Humidity 95% 86% 91%
Pressure 30.06 in1017.9 mb 29.51 in999.3 mb -
Precipitation 0.00 in0.0 mm - -
Hour Temp Dew Point Humidity Winds Wind Gusts Pressure Precip Precip Rate Daily Precip Total
12:00 AM 28.6°F-1.9°C 27.4°F-2.6°C 95% 4.6 mph ENE7.4 kmh ENE 8.1 mph13.0 kmh 29.59 in1002.0 mb - 0.00 in0.0 mm 0.00 in0.0 mm
12:10 AM 28.6°F-1.9°C 27.6°F-2.4°C 96% 6.9 mph NE11.1 kmh NE 9.2 mph14.8 kmh 29.60 in1002.4 mb - 0.00 in0.0 mm 0.00 in0.0 mm
12:20 AM 28.7°F-1.8°C 27.7°F-2.4°C 96% 4.6 mph E7.4 kmh E 6.9 mph11.1 kmh 29.59 in1002.0 mb - 0.00 in0.0 mm 0.00 in0.0 mm
12:30 AM 28.9°F-1.7°C 27.6°F-2.4°C 95% 6.9 mph NE11.1 kmh NE 9.2 mph14.8 kmh 29.58 in1001.7 mb - 0.00 in0.0 mm 0.00 in0.0 mm
12:40 AM 29.0°F-1.7°C 28.0°F-2.2°C 96% 4.6 mph ENE7.4 kmh ENE 8.1 mph13.0 kmh 29.57 in1001.4 mb - 0.00 in0.0 mm 0.00 in0.0 mm
12:50 AM 28.7°F-1.8°C 27.5°F-2.5°C 95% 5.8 mph ENE9.3 kmh ENE 9.2 mph14.8 kmh 29.57 in1001.4 mb - 0.00 in0.0 mm 0.00 in0.0 mm
01:00 AM 28.5°F-1.9°C 27.3°F-2.6°C 95% 5.8 mph E9.3 kmh E 13.8 mph22.2 kmh 29.56 in1001.0 mb - 0.00 in0.0 mm 0.00 in0.0 mm
01:10 AM 28.4°F-2.0°C 27.2°F-2.7°C 95% 4.6 mph ENE7.4 kmh ENE 6.9 mph11.1 kmh 29.56 in1001.0 mb - 0.00 in0.0 mm 0.00 in0.0 mm
01:20 AM 28.4°F-2.0°C 27.2°F-2.7°C 95% 4.6 mph NE7.4 kmh NE 8.1 mph13.0 kmh 29.55 in1000.7 mb - 0.00 in0.0 mm 0.00 in0.0 mm
01:30 AM 28.3°F-2.1°C 27.1°F-2.7°C 95% 3.5 mph NE5.6 kmh NE 5.8 mph9.3 kmh 29.55 in1000.7 mb - 0.00 in0.0 mm 0.00 in0.0 mm
01:40 AM 28.1°F-2.2°C 26.9°F-2.8°C 95% 4.6 mph ENE7.4 kmh ENE 10.4 mph16.7 kmh 29.54 in1000.3 mb - 0.00 in0.0 mm 0.00 in0.0 mm
01:50 AM 28.3°F-2.1°C 27.1°F-2.7°C 95% 6.9 mph NE11.1 kmh NE 10.4 mph16.7 kmh 29.53 in1000.0 mb - 0.00 in0.0 mm 0.00 in0.0 mm
02:00 AM 28.4°F-2.0°C 27.1°F-2.7°C 95% 6.9 mph E11.1 kmh E 11.5 mph18.5 kmh 29.54 in1000.3 mb - 0.00 in0.0 mm 0.00 in0.0 mm
02:10 AM 28.5°F-1.9°C 27.3°F-2.6°C 95% 5.8 mph ENE9.3 kmh ENE 9.2 mph14.8 kmh 29.53 in1000.0 mb - 0.00 in0.0 mm 0.00 in0.0 mm
02:20 AM 28.3°F-2.1°C 27.1°F-2.7°C 95% 2.3 mph E3.7 kmh E 4.6 mph7.4 kmh 29.53 in1000.0 mb - 0.00 in0.0 mm 0.00 in0.0 mm
02:30 AM 28.2°F-2.1°C 26.7°F-2.9°C 94% 3.5 mph NE5.6 kmh NE 8.1 mph13.0 kmh 29.53 in1000.0 mb - 0.00 in0.0 mm 0.00 in0.0 mm
02:40 AM 28.2°F-2.1°C 26.7°F-2.9°C 94% 2.3 mph NNE3.7 kmh NNE 2.3 mph3.7 kmh 29.52 in999.7 mb - 0.00 in0.0 mm 0.00 in0.0 mm
02:50 AM 27.9°F-2.3°C 26.4°F-3.1°C 94% 1.2 mph NNE1.9 kmh NNE 8.1 mph13.0 kmh 29.52 in999.7 mb - 0.00 in0.0 mm 0.00 in0.0 mm
03:00 AM 27.7°F-2.4°C 26.5°F-3.1°C 95% 2.3 mph NE3.7 kmh NE 3.5 mph5.6 kmh 29.52 in999.7 mb - 0.00 in0.0 mm 0.00 in0.0 mm
03:10 AM 27.5°F-2.5°C 26.0°F-3.3°C 94% 2.3 mph NE3.7 kmh NE 5.8 mph9.3 kmh 29.53 in1000.0 mb - 0.00 in0.0 mm 0.00 in0.0 mm
03:20 AM 27.2°F-2.7°C 26.0°F-3.3°C 95% 2.3 mph NE3.7 kmh NE 4.6 mph7.4 kmh 29.52 in999.7 mb - 0.00 in0.0 mm 0.00 in0.0 mm
03:30 AM 27.2°F-2.7°C 25.9°F-3.4°C 95% 2.3 mph NE3.7 kmh NE 8.1 mph13.0 kmh 29.53 in1000.0 mb - 0.00 in0.0 mm 0.00 in0.0 mm
03:40 AM 27.0°F-2.8°C 25.8°F-3.4°C 95% 1.2 mph N1.9 kmh N 2.3 mph3.7 kmh 29.53 in1000.0 mb - 0.00 in0.0 mm 0.00 in0.0 mm
03:50 AM 26.9°F-2.8°C 25.6°F-3.6°C 95% 2.3 mph NE3.7 kmh NE 6.9 mph11.1 kmh 29.54 in1000.3 mb - 0.00 in0.0 mm 0.00 in0.0 mm
04:00 AM 26.6°F-3.0°C 25.4°F-3.7°C 95% 2.3 mph NE3.7 kmh NE 2.3 mph3.7 kmh 29.53 in1000.0 mb - 0.00 in0.0 mm 0.00 in0.0 mm
04:10 AM 26.6°F-3.0°C 25.4°F-3.7°C 95% 1.2 mph NE1.9 kmh NE 3.5 mph5.6 kmh 29.52 in999.7 mb - 0.00 in0.0 mm 0.00 in0.0 mm
04:20 AM 26.4°F-3.1°C 25.1°F-3.8°C 95% 3.5 mph E5.6 kmh E 6.9 mph11.1 kmh 29.52 in999.7 mb - 0.00 in0.0 mm 0.00 in0.0 mm
04:30 AM 26.1°F-3.3°C 24.9°F-3.9°C 95% 3.5 mph NE5.6 kmh NE 6.9 mph11.1 kmh 29.52 in999.7 mb - 0.00 in0.0 mm 0.00 in0.0 mm
04:40 AM 25.9°F-3.4°C 24.7°F-4.1°C 95% 3.5 mph NE5.6 kmh NE 5.8 mph9.3 kmh 29.52 in999.7 mb - 0.00 in0.0 mm 0.00 in0.0 mm
04:50 AM 25.8°F-3.4°C 24.6°F-4.1°C 95% 4.6 mph NE7.4 kmh NE 8.1 mph13.0 kmh 29.52 in999.7 mb - 0.00 in0.0 mm 0.00 in0.0 mm
05:00 AM 25.7°F-3.5°C 24.5°F-4.2°C 95% 1.2 mph NE1.9 kmh NE 3.5 mph5.6 kmh 29.51 in999.3 mb - 0.00 in0.0 mm 0.00 in0.0 mm
05:10 AM 25.6°F-3.6°C 24.4°F-4.2°C 95% 2.3 mph NE3.7 kmh NE 5.8 mph9.3 kmh 29.51 in999.3 mb - 0.00 in0.0 mm 0.00 in0.0 mm
05:20 AM 25.3°F-3.7°C 24.1°F-4.4°C 95% 2.3 mph NNE3.7 kmh NNE 3.5 mph5.6 kmh 29.52 in999.7 mb - 0.00 in0.0 mm 0.00 in0.0 mm
05:30 AM 25.3°F-3.7°C 24.1°F-4.4°C 95% 1.2 mph N1.9 kmh N 2.3 mph3.7 kmh 29.52 in999.7 mb - 0.00 in0.0 mm 0.00 in0.0 mm
05:40 AM 25.1°F-3.8°C 23.9°F-4.5°C 95% 1.2 mph N1.9 kmh N 2.3 mph3.7 kmh 29.52 in999.7 mb - 0.00 in0.0 mm 0.00 in0.0 mm
05:50 AM 24.8°F-4.0°C 23.3°F-4.8°C 94% 2.3 mph NE3.7 kmh NE 4.6 mph7.4 kmh 29.53 in1000.0 mb - 0.00 in0.0 mm 0.00 in0.0 mm
06:00 AM 24.6°F-4.1°C 23.4°F-4.8°C 95% 1.2 mph N1.9 kmh N 3.5 mph5.6 kmh 29.54 in1000.3 mb - 0.00 in0.0 mm 0.00 in0.0 mm
06:10 AM 24.3°F-4.3°C 22.8°F-5.1°C 94% 1.2 mph N1.9 kmh N 3.5 mph5.6 kmh 29.53 in1000.0 mb - 0.00 in0.0 mm 0.00 in0.0 mm
06:20 AM 24.2°F-4.3°C 22.7°F-5.2°C 94% 1.2 mph N1.9 kmh N 3.5 mph5.6 kmh 29.53 in1000.0 mb - 0.00 in0.0 mm 0.00 in0.0 mm
06:30 AM 23.9°F-4.5°C 22.4°F-5.3°C 94% 1.2 mph NNE1.9 kmh NNE 2.3 mph3.7 kmh 29.54 in1000.3 mb - 0.00 in0.0 mm 0.00 in0.0 mm
06:40 AM 23.9°F-4.5°C 22.4°F-5.3°C 94% 1.2 mph NNW1.9 kmh NNW 2.3 mph3.7 kmh 29.54 in1000.3 mb - 0.00 in0.0 mm 0.00 in0.0 mm
06:50 AM 23.6°F-4.7°C 22.2°F-5.4°C 94% 1.2 mph N1.9 kmh N 2.3 mph3.7 kmh 29.54 in1000.3 mb - 0.00 in0.0 mm 0.00 in0.0 mm
07:00 AM 23.4°F-4.8°C 21.9°F-5.6°C 94% 2.3 mph N3.7 kmh N 3.5 mph5.6 kmh 29.54 in1000.3 mb - 0.00 in0.0 mm 0.00 in0.0 mm
07:10 AM 23.3°F-4.8°C 21.8°F-5.7°C 94% 1.2 mph N1.9 kmh N 3.5 mph5.6 kmh 29.54 in1000.3 mb - 0.00 in0.0 mm 0.00 in0.0 mm
07:20 AM 23.2°F-4.9°C 21.7°F-5.7°C 94% 1.2 mph N1.9 kmh N 2.3 mph3.7 kmh 29.54 in1000.3 mb - 0.00 in0.0 mm 0.00 in0.0 mm
07:30 AM 23.2°F-4.9°C 21.7°F-5.7°C 94% 2.3 mph N3.7 kmh N 4.6 mph7.4 kmh 29.54 in1000.3 mb - 0.00 in0.0 mm 0.00 in0.0 mm
07:40 AM 23.0°F-5.0°C 21.5°F-5.8°C 94% 2.3 mph N3.7 kmh N 3.5 mph5.6 kmh 29.53 in1000.0 mb - 0.00 in0.0 mm 0.00 in0.0 mm
07:50 AM 23.0°F-5.0°C 21.5°F-5.8°C 94% 2.3 mph N3.7 kmh N 3.5 mph5.6 kmh 29.53 in1000.0 mb - 0.00 in0.0 mm 0.00 in0.0 mm
08:00 AM 22.9°F-5.1°C 21.4°F-5.9°C 94% 3.5 mph NNW5.6 kmh NNW 4.6 mph7.4 kmh 29.54 in1000.3 mb - 0.00 in0.0 mm 0.00 in0.0 mm
08:10 AM 22.6°F-5.2°C 21.1°F-6.1°C 94% 2.3 mph N3.7 kmh N 3.5 mph5.6 kmh 29.55 in1000.7 mb - 0.00 in0.0 mm 0.00 in0.0 mm
08:20 AM 22.4°F-5.3°C 21.0°F-6.1°C 94% 2.3 mph NNW3.7 kmh NNW 3.5 mph5.6 kmh 29.55 in1000.7 mb - 0.00 in0.0 mm 0.00 in0.0 mm
08:30 AM 22.4°F-5.3°C 20.9°F-6.2°C 94% 2.3 mph NNW3.7 kmh NNW 3.5 mph5.6 kmh 29.55 in1000.7 mb - 0.00 in0.0 mm 0.00 in0.0 mm
08:40 AM 22.1°F-5.5°C 20.6°F-6.3°C 94% 2.3 mph N3.7 kmh N 3.5 mph5.6 kmh 29.55 in1000.7 mb - 0.00 in0.0 mm 0.00 in0.0 mm
08:50 AM 21.9°F-5.6°C 20.5°F-6.4°C 94% 2.3 mph N3.7 kmh N 3.5 mph5.6 kmh 29.55 in1000.7 mb - 0.00 in0.0 mm 0.00 in0.0 mm
09:00 AM 21.8°F-5.7°C 20.1°F-6.6°C 93% 2.3 mph N3.7 kmh N 3.5 mph5.6 kmh 29.55 in1000.7 mb - 0.00 in0.0 mm 0.00 in0.0 mm
09:10 AM 21.7°F-5.7°C 20.0°F-6.7°C 93% 3.5 mph NNW5.6 kmh NNW 4.6 mph7.4 kmh 29.55 in1000.7 mb - 0.00 in0.0 mm 0.00 in0.0 mm
09:20 AM 21.7°F-5.7°C 20.0°F-6.7°C 93% 2.3 mph NNW3.7 kmh NNW 3.5 mph5.6 kmh 29.56 in1001.0 mb - 0.00 in0.0 mm 0.00 in0.0 mm
09:30 AM 21.6°F-5.8°C 19.9°F-6.7°C 93% 2.3 mph NNW3.7 kmh NNW 3.5 mph5.6 kmh 29.57 in1001.4 mb - 0.00 in0.0 mm 0.00 in0.0 mm
09:40 AM 21.3°F-5.9°C 19.6°F-6.9°C 93% 2.3 mph N3.7 kmh N 4.6 mph7.4 kmh 29.57 in1001.4 mb - 0.00 in0.0 mm 0.00 in0.0 mm
09:50 AM 21.2°F-6.0°C 19.2°F-7.1°C 92% 2.3 mph N3.7 kmh N 3.5 mph5.6 kmh 29.57 in1001.4 mb - 0.00 in0.0 mm 0.00 in0.0 mm
10:00 AM 20.8°F-6.2°C 18.8°F-7.3°C 92% 3.5 mph N5.6 kmh N 3.5 mph5.6 kmh 29.58 in1001.7 mb - 0.00 in0.0 mm 0.00 in0.0 mm
10:10 AM 20.4°F-6.4°C 18.5°F-7.5°C 92% 3.5 mph N5.6 kmh N 4.6 mph7.4 kmh 29.58 in1001.7 mb - 0.00 in0.0 mm 0.00 in0.0 mm
10:20 AM 20.3°F-6.5°C 18.3°F-7.6°C 92% 3.5 mph N5.6 kmh N 4.6 mph7.4 kmh 29.58 in1001.7 mb - 0.00 in0.0 mm 0.00 in0.0 mm
10:30 AM 20.2°F-6.6°C 18.2°F-7.7°C 92% 3.5 mph N5.6 kmh N 8.1 mph13.0 kmh 29.59 in1002.0 mb - 0.00 in0.0 mm 0.00 in0.0 mm
10:40 AM 20.0°F-6.7°C 17.8°F-7.9°C 91% 3.5 mph N5.6 kmh N 4.6 mph7.4 kmh 29.59 in1002.0 mb - 0.00 in0.0 mm 0.00 in0.0 mm
10:50 AM 20.0°F-6.7°C 18.1°F-7.7°C 92% 3.5 mph N5.6 kmh N 4.6 mph7.4 kmh 29.59 in1002.0 mb - 0.00 in0.0 mm 0.00 in0.0 mm
11:00 AM 19.8°F-6.8°C 17.6°F-8.0°C 91% 2.3 mph N3.7 kmh N 3.5 mph5.6 kmh 29.59 in1002.0 mb - 0.00 in0.0 mm 0.00 in0.0 mm
11:10 AM 19.6°F-6.9°C 17.4°F-8.1°C 91% 2.3 mph N3.7 kmh N 4.6 mph7.4 kmh 29.60 in1002.4 mb - 0.00 in0.0 mm 0.00 in0.0 mm
11:20 AM 19.7°F-6.8°C 17.5°F-8.1°C 91% 2.3 mph N3.7 kmh N 3.5 mph5.6 kmh 29.60 in1002.4 mb - 0.00 in0.0 mm 0.00 in0.0 mm
11:30 AM 19.7°F-6.8°C 17.5°F-8.1°C 91% 2.3 mph N3.7 kmh N 4.6 mph7.4 kmh 29.60 in1002.4 mb - 0.00 in0.0 mm 0.00 in0.0 mm
11:40 AM 19.7°F-6.8°C 17.5°F-8.1°C 91% 2.3 mph NNW3.7 kmh NNW 3.5 mph5.6 kmh 29.61 in1002.7 mb - 0.00 in0.0 mm 0.00 in0.0 mm
11:50 AM 19.7°F-6.8°C 17.5°F-8.1°C 91% 2.3 mph N3.7 kmh N 3.5 mph5.6 kmh 29.61 in1002.7 mb - 0.00 in0.0 mm 0.00 in0.0 mm
12:00 PM 19.6°F-6.9°C 17.4°F-8.1°C 91% 2.3 mph NNW3.7 kmh NNW 3.5 mph5.6 kmh 29.61 in1002.7 mb - 0.00 in0.0 mm 0.00 in0.0 mm
12:10 PM 19.7°F-6.8°C 17.5°F-8.1°C 91% 3.5 mph N5.6 kmh N 5.8 mph9.3 kmh 29.62 in1003.0 mb - 0.00 in0.0 mm 0.00 in0.0 mm
12:20 PM 19.6°F-6.9°C 17.4°F-8.1°C 91% 4.6 mph N7.4 kmh N 5.8 mph9.3 kmh 29.62 in1003.0 mb - 0.00 in0.0 mm 0.00 in0.0 mm
12:30 PM 19.3°F-7.1°C 16.8°F-8.4°C 90% 5.8 mph NNW9.3 kmh NNW 6.9 mph11.1 kmh 29.63 in1003.4 mb - 0.00 in0.0 mm 0.00 in0.0 mm
12:40 PM 19.2°F-7.1°C 16.7°F-8.5°C 90% 2.3 mph N3.7 kmh N 4.6 mph7.4 kmh 29.63 in1003.4 mb - 0.00 in0.0 mm 0.00 in0.0 mm
12:50 PM 19.4°F-7.0°C 16.9°F-8.4°C 90% 2.3 mph N3.7 kmh N 4.6 mph7.4 kmh 29.63 in1003.4 mb - 0.00 in0.0 mm 0.00 in0.0 mm
01:00 PM 19.6°F-6.9°C 16.9°F-8.4°C 89% 3.5 mph N5.6 kmh N 4.6 mph7.4 kmh 29.63 in1003.4 mb - 0.00 in0.0 mm 0.00 in0.0 mm
01:10 PM 19.6°F-6.9°C 16.6°F-8.6°C 88% 3.5 mph N5.6 kmh N 9.2 mph14.8 kmh 29.64 in1003.7 mb - 0.00 in0.0 mm 0.00 in0.0 mm
01:20 PM 19.5°F-6.9°C 16.8°F-8.4°C 89% 4.6 mph N7.4 kmh N 10.4 mph16.7 kmh 29.64 in1003.7 mb - 0.00 in0.0 mm 0.00 in0.0 mm
01:30 PM 19.7°F-6.8°C 17.0°F-8.3°C 89% 4.6 mph N7.4 kmh N 6.9 mph11.1 kmh 29.64 in1003.7 mb - 0.00 in0.0 mm 0.00 in0.0 mm
01:40 PM 19.5°F-6.9°C 16.8°F-8.4°C 89% 3.5 mph N5.6 kmh N 5.8 mph9.3 kmh 29.64 in1003.7 mb - 0.00 in0.0 mm 0.00 in0.0 mm
01:50 PM 19.6°F-6.9°C 16.9°F-8.4°C 89% 4.6 mph N7.4 kmh N 5.8 mph9.3 kmh 29.65 in1004.1 mb - 0.00 in0.0 mm 0.00 in0.0 mm
02:00 PM 19.8°F-6.8°C 17.1°F-8.3°C 89% 5.8 mph NNW9.3 kmh NNW 10.4 mph16.7 kmh 29.65 in1004.1 mb - 0.00 in0.0 mm 0.00 in0.0 mm
02:10 PM 20.1°F-6.6°C 17.3°F-8.2°C 89% 5.8 mph N9.3 kmh N 6.9 mph11.1 kmh 29.65 in1004.1 mb - 0.00 in0.0 mm 0.00 in0.0 mm
02:20 PM 20.4°F-6.4°C 17.4°F-8.1°C 88% 4.6 mph NNW7.4 kmh NNW 5.8 mph9.3 kmh 29.66 in1004.4 mb - 0.00 in0.0 mm 0.00 in0.0 mm
02:30 PM 20.3°F-6.5°C 17.3°F-8.2°C 88% 4.6 mph NNW7.4 kmh NNW 4.6 mph7.4 kmh 29.66 in1004.4 mb - 0.00 in0.0 mm 0.00 in0.0 mm
02:40 PM 20.0°F-6.7°C 17.0°F-8.3°C 88% 3.5 mph N5.6 kmh N 8.1 mph13.0 kmh 29.67 in1004.7 mb - 0.00 in0.0 mm 0.00 in0.0 mm
02:50 PM 19.8°F-6.8°C 16.6°F-8.6°C 87% 4.6 mph N7.4 kmh N 6.9 mph11.1 kmh 29.68 in1005.1 mb - 0.00 in0.0 mm 0.00 in0.0 mm
03:00 PM 19.8°F-6.8°C 16.8°F-8.4°C 88% 4.6 mph N7.4 kmh N 6.9 mph11.1 kmh 29.68 in1005.1 mb - 0.00 in0.0 mm 0.00 in0.0 mm
03:10 PM 19.9°F-6.7°C 16.7°F-8.5°C 87% 5.8 mph N9.3 kmh N 9.2 mph14.8 kmh 29.69 in1005.4 mb - 0.00 in0.0 mm 0.00 in0.0 mm
03:20 PM 20.0°F-6.7°C 16.8°F-8.4°C 87% 5.8 mph NNW9.3 kmh NNW 9.2 mph14.8 kmh 29.69 in1005.4 mb - 0.00 in0.0 mm 0.00 in0.0 mm
03:30 PM 20.2°F-6.6°C 17.0°F-8.3°C 87% 4.6 mph N7.4 kmh N 6.9 mph11.1 kmh 29.70 in1005.8 mb - 0.00 in0.0 mm 0.00 in0.0 mm
03:40 PM 20.6°F-6.3°C 17.3°F-8.2°C 87% 4.6 mph NNW7.4 kmh NNW 8.1 mph13.0 kmh 29.70 in1005.8 mb - 0.00 in0.0 mm 0.00 in0.0 mm
03:50 PM 21.1°F-6.1°C 17.8°F-7.9°C 87% 4.6 mph N7.4 kmh N 6.9 mph11.1 kmh 29.70 in1005.8 mb - 0.00 in0.0 mm 0.00 in0.0 mm
04:00 PM 21.6°F-5.8°C 18.1°F-7.7°C 86% 5.8 mph N9.3 kmh N 9.2 mph14.8 kmh 29.71 in1006.1 mb - 0.00 in0.0 mm 0.00 in0.0 mm
04:10 PM 21.8°F-5.7°C 18.5°F-7.5°C 87% 6.9 mph N11.1 kmh N 8.1 mph13.0 kmh 29.72 in1006.4 mb - 0.00 in0.0 mm 0.00 in0.0 mm
04:20 PM 22.2°F-5.4°C 18.9°F-7.3°C 87% 5.8 mph N9.3 kmh N 8.1 mph13.0 kmh 29.73 in1006.8 mb - 0.00 in0.0 mm 0.00 in0.0 mm
04:30 PM 22.3°F-5.4°C 19.3°F-7.1°C 88% 4.6 mph N7.4 kmh N 8.1 mph13.0 kmh 29.74 in1007.1 mb - 0.00 in0.0 mm 0.00 in0.0 mm
04:40 PM 22.2°F-5.4°C 19.2°F-7.1°C 88% 6.9 mph N11.1 kmh N 12.7 mph20.4 kmh 29.75 in1007.5 mb - 0.00 in0.0 mm 0.00 in0.0 mm
04:50 PM 22.3°F-5.4°C 19.6°F-6.9°C 89% 3.5 mph N5.6 kmh N 4.6 mph7.4 kmh 29.76 in1007.8 mb - 0.00 in0.0 mm 0.00 in0.0 mm
05:00 PM 22.2°F-5.4°C 19.7°F-6.8°C 90% 3.5 mph N5.6 kmh N 9.2 mph14.8 kmh 29.76 in1007.8 mb - 0.00 in0.0 mm 0.00 in0.0 mm
05:10 PM 22.2°F-5.4°C 19.7°F-6.8°C 90% 4.6 mph N7.4 kmh N 8.1 mph13.0 kmh 29.77 in1008.1 mb - 0.00 in0.0 mm 0.00 in0.0 mm
05:20 PM 22.5°F-5.3°C 20.0°F-6.7°C 90% 8.1 mph N13.0 kmh N 11.5 mph18.5 kmh 29.77 in1008.1 mb - 0.00 in0.0 mm 0.00 in0.0 mm
05:30 PM 22.9°F-5.1°C 20.4°F-6.4°C 90% 6.9 mph N11.1 kmh N 9.2 mph14.8 kmh 29.78 in1008.5 mb - 0.00 in0.0 mm 0.00 in0.0 mm
05:40 PM 23.3°F-4.8°C 20.8°F-6.2°C 90% 5.8 mph N9.3 kmh N 9.2 mph14.8 kmh 29.79 in1008.8 mb - 0.00 in0.0 mm 0.00 in0.0 mm
05:50 PM 23.5°F-4.7°C 21.0°F-6.1°C 90% 5.8 mph N9.3 kmh N 5.8 mph9.3 kmh 29.80 in1009.1 mb - 0.00 in0.0 mm 0.00 in0.0 mm
06:00 PM 23.6°F-4.7°C 21.1°F-6.1°C 90% 5.8 mph NNW9.3 kmh NNW 11.5 mph18.5 kmh 29.80 in1009.1 mb - 0.00 in0.0 mm 0.00 in0.0 mm
06:10 PM 23.6°F-4.7°C 21.1°F-6.1°C 90% 4.6 mph N7.4 kmh N 5.8 mph9.3 kmh 29.81 in1009.5 mb - 0.00 in0.0 mm 0.00 in0.0 mm
06:20 PM 23.5°F-4.7°C 21.0°F-6.1°C 90% 4.6 mph N7.4 kmh N 11.5 mph18.5 kmh 29.82 in1009.8 mb - 0.00 in0.0 mm 0.00 in0.0 mm
06:30 PM 23.4°F-4.8°C 20.9°F-6.2°C 90% 5.8 mph N9.3 kmh N 6.9 mph11.1 kmh 29.83 in1010.2 mb - 0.00 in0.0 mm 0.00 in0.0 mm
06:40 PM 23.4°F-4.8°C 20.9°F-6.2°C 90% 4.6 mph N7.4 kmh N 10.4 mph16.7 kmh 29.84 in1010.5 mb - 0.00 in0.0 mm 0.00 in0.0 mm
06:50 PM 23.5°F-4.7°C 21.0°F-6.1°C 90% 4.6 mph N7.4 kmh N 8.1 mph13.0 kmh 29.85 in1010.8 mb - 0.00 in0.0 mm 0.00 in0.0 mm
07:00 PM 23.4°F-4.8°C 20.9°F-6.2°C 90% 4.6 mph N7.4 kmh N 6.9 mph11.1 kmh 29.86 in1011.2 mb - 0.00 in0.0 mm 0.00 in0.0 mm
07:10 PM 23.4°F-4.8°C 21.2°F-6.0°C 91% 3.5 mph N5.6 kmh N 4.6 mph7.4 kmh 29.86 in1011.2 mb - 0.00 in0.0 mm 0.00 in0.0 mm
07:20 PM 23.2°F-4.9°C 20.7°F-6.3°C 90% 2.3 mph N3.7 kmh N 3.5 mph5.6 kmh 29.88 in1011.9 mb - 0.00 in0.0 mm 0.00 in0.0 mm
07:30 PM 23.0°F-5.0°C 20.5°F-6.4°C 90% 3.5 mph NNW5.6 kmh NNW 4.6 mph7.4 kmh 29.89 in1012.2 mb - 0.00 in0.0 mm 0.00 in0.0 mm
07:40 PM 22.9°F-5.1°C 20.4°F-6.4°C 90% 3.5 mph N5.6 kmh N 4.6 mph7.4 kmh 29.89 in1012.2 mb - 0.00 in0.0 mm 0.00 in0.0 mm
07:50 PM 22.7°F-5.2°C 19.9°F-6.7°C 89% 4.6 mph N7.4 kmh N 5.8 mph9.3 kmh 29.90 in1012.5 mb - 0.00 in0.0 mm 0.00 in0.0 mm
08:00 PM 22.5°F-5.3°C 20.0°F-6.7°C 90% 2.3 mph N3.7 kmh N 2.3 mph3.7 kmh 29.90 in1012.5 mb - 0.00 in0.0 mm 0.00 in0.0 mm
08:10 PM 22.4°F-5.3°C 19.9°F-6.7°C 90% 2.3 mph N3.7 kmh N 3.5 mph5.6 kmh 29.91 in1012.9 mb - 0.00 in0.0 mm 0.00 in0.0 mm
08:20 PM 22.4°F-5.3°C 19.9°F-6.7°C 90% 1.2 mph NNW1.9 kmh NNW 6.9 mph11.1 kmh 29.91 in1012.9 mb - 0.00 in0.0 mm 0.00 in0.0 mm
08:30 PM 22.3°F-5.4°C 19.9°F-6.7°C 90% 3.5 mph N5.6 kmh N 5.8 mph9.3 kmh 29.92 in1013.2 mb - 0.00 in0.0 mm 0.00 in0.0 mm
08:40 PM 22.1°F-5.5°C 19.3°F-7.1°C 89% 1.2 mph 1.9 kmh 2.3 mph3.7 kmh 29.92 in1013.2 mb - 0.00 in0.0 mm 0.00 in0.0 mm
08:50 PM 21.8°F-5.7°C 19.3°F-7.1°C 90% 2.3 mph N3.7 kmh N 2.3 mph3.7 kmh 29.92 in1013.2 mb - 0.00 in0.0 mm 0.00 in0.0 mm
09:00 PM 21.6°F-5.8°C 19.2°F-7.1°C 90% 1.2 mph N1.9 kmh N 3.5 mph5.6 kmh 29.92 in1013.2 mb - 0.00 in0.0 mm 0.00 in0.0 mm
09:10 PM 21.7°F-5.7°C 19.2°F-7.1°C 90% 1.2 mph N1.9 kmh N 2.3 mph3.7 kmh 29.93 in1013.5 mb - 0.00 in0.0 mm 0.00 in0.0 mm
09:20 PM 21.4°F-5.9°C 18.7°F-7.4°C 89% 2.3 mph N3.7 kmh N 3.5 mph5.6 kmh 29.93 in1013.5 mb - 0.00 in0.0 mm 0.00 in0.0 mm
09:30 PM 21.4°F-5.9°C 18.9°F-7.3°C 90% 1.2 mph N1.9 kmh N 2.3 mph3.7 kmh 29.94 in1013.9 mb - 0.00 in0.0 mm 0.00 in0.0 mm
09:40 PM 21.4°F-5.9°C 18.9°F-7.3°C 90% 2.3 mph N3.7 kmh N 2.3 mph3.7 kmh 29.94 in1013.9 mb - 0.00 in0.0 mm 0.00 in0.0 mm
09:50 PM 21.3°F-5.9°C 18.8°F-7.3°C 90% 2.3 mph N3.7 kmh N 4.6 mph7.4 kmh 29.95 in1014.2 mb - 0.00 in0.0 mm 0.00 in0.0 mm
10:00 PM 21.1°F-6.1°C 18.6°F-7.4°C 90% 2.3 mph NNW3.7 kmh NNW 3.5 mph5.6 kmh 29.95 in1014.2 mb - 0.00 in0.0 mm 0.00 in0.0 mm
10:10 PM 20.8°F-6.2°C 18.1°F-7.7°C 89% 3.5 mph N5.6 kmh N 3.5 mph5.6 kmh 29.96 in1014.6 mb - 0.00 in0.0 mm 0.00 in0.0 mm
10:20 PM 20.6°F-6.3°C 18.1°F-7.7°C 90% 2.3 mph N3.7 kmh N 3.5 mph5.6 kmh 29.97 in1014.9 mb - 0.00 in0.0 mm 0.00 in0.0 mm
10:30 PM 20.4°F-6.4°C 17.7°F-7.9°C 89% 2.3 mph N3.7 kmh N 6.9 mph11.1 kmh 29.98 in1015.2 mb - 0.00 in0.0 mm 0.00 in0.0 mm
10:40 PM 20.2°F-6.6°C 17.5°F-8.1°C 89% 3.5 mph N5.6 kmh N 3.5 mph5.6 kmh 29.98 in1015.2 mb - 0.00 in0.0 mm 0.00 in0.0 mm
10:50 PM 19.9°F-6.7°C 17.2°F-8.2°C 89% 5.8 mph N9.3 kmh N 10.4 mph16.7 kmh 29.99 in1015.6 mb - 0.00 in0.0 mm 0.00 in0.0 mm
11:00 PM 19.6°F-6.9°C 16.9°F-8.4°C 89% 3.5 mph N5.6 kmh N 4.6 mph7.4 kmh 29.99 in1015.6 mb - 0.00 in0.0 mm 0.00 in0.0 mm
11:10 PM 19.3°F-7.1°C 16.6°F-8.6°C 89% 4.6 mph NNW7.4 kmh NNW 6.9 mph11.1 kmh 30.00 in1015.9 mb - 0.00 in0.0 mm 0.00 in0.0 mm
11:20 PM 18.9°F-7.3°C 16.2°F-8.8°C 89% 4.6 mph N7.4 kmh N 5.8 mph9.3 kmh 30.00 in1015.9 mb - 0.00 in0.0 mm 0.00 in0.0 mm
11:30 PM 18.4°F-7.6°C 15.4°F-9.2°C 88% 2.3 mph NNW3.7 kmh NNW 4.6 mph7.4 kmh 30.01 in1016.3 mb - 0.00 in0.0 mm 0.00 in0.0 mm
11:40 PM 18.1°F-7.7°C 15.4°F-9.2°C 89% 3.5 mph 5.6 kmh 5.8 mph9.3 kmh 30.02 in1016.6 mb - 0.00 in0.0 mm 0.00 in0.0 mm
11:50 PM 17.9°F-7.8°C 15.2°F-9.3°C 89% 2.3 mph N3.7 kmh N 2.3 mph3.7 kmh 30.03 in1016.9 mb - 0.00 in0.0 mm 0.00 in0.0 mm